This is the latest recevied weather packets stored in our database for station/object PU2XNA. If no packets are shown the sender has not sent any weather packets the latest 10 day(s).
| Time | Temp. | Humidity | Pressure | Rain* | Wind** | Luminosity | Snow |
|---|---|---|---|---|---|---|---|
| 1787412603 | 30.56° C | 32% | 1015.7 hPa | - | - | - | - |
| 1787411703 | 30° C | 33% | 1015.9 hPa | - | - | - | - |
| 1787410803 | 29.44° C | 36% | 1016.2 hPa | - | - | - | - |
| 1787409903 | 30° C | 36% | 1016.5 hPa | - | - | - | - |
| 1787409003 | 30° C | 36% | 1016.7 hPa | - | - | - | - |
| 1787408102 | 29.44° C | 36% | 1017 hPa | - | - | - | - |
| 1787407202 | 28.89° C | 38% | 1017.2 hPa | - | - | - | - |
| 1787406304 | 28.33° C | 39% | 1017.3 hPa | - | - | - | - |
| 1787405403 | 27.78° C | 41% | 1017.5 hPa | - | - | - | - |
| 1787404502 | 27.78° C | 42% | 1017.5 hPa | - | - | - | - |
| 1787403603 | 27.78° C | 41% | 1017.6 hPa | - | - | - | - |
| 1787402703 | 29.44° C | 38% | 1017.7 hPa | - | - | - | - |
| 1787401803 | 31.67° C | 36% | 1017.5 hPa | - | - | - | - |
| 1787400902 | 32.22° C | 34% | 1017.5 hPa | - | - | - | - |
| 1787400002 | 32.78° C | 34% | 1017.2 hPa | - | - | - | - |
| 1787399103 | 31.67° C | 36% | 1017.1 hPa | - | - | - | - |
| 1787398204 | 30° C | 38% | 1017 hPa | - | - | - | - |
| 1787397303 | 28.33° C | 42% | 1017 hPa | - | - | - | - |
| 1787396402 | 27.22° C | 44% | 1016.8 hPa | - | - | - | - |
| 1787395503 | 25.56° C | 47% | 1016.6 hPa | - | - | - | - |
| 1787394603 | 23.33° C | 52% | 1016.5 hPa | - | - | - | - |
| 1787393703 | 18.89° C | 63% | 1016.3 hPa | - | - | - | - |
| 1787392802 | 15° C | 75% | 1016.1 hPa | - | - | - | - |
| 1787391902 | 15° C | 75% | 1016 hPa | - | - | - | - |
| 1787391003 | 15° C | 75% | 1016 hPa | - | - | - | - |
* Rain since midnight (hover to see other rain measurements)
** Current wind speed in m/s (hover to see current wind gust speed)